Sundance, Wyoming
Current Conditions -  °F | °C
As of 9:55 PM on Friday 19 Dec 2014 (Local Time) from KSPF Reporting Station
Clear Clear  
Wind Chill: 30°   Ceiling: Unl
Heat Index: 30°   Visibility: 10mi
Dew Point: 18°   Wind: 0mph
Humidity: 60%   Direction: NA
Pressure: 29.9"   Gusts: NA
Location:  44.41°N, 104.38°W
Report Text: KSPF 200455Z AUTO 00000KT 10SM CLR M01/M08 A2990 RMK AO2
Loading
Personal Weather Stations






























Interactive Weather Map New forecast layout! Learn more

10-Day Weather Forecast

Advertisements
Track Severe Weather on mobile